sensor_id;sensor_type;location;lat;lon;timestamp;temperature;humidity
48515;DHT22;34309;47.260;2.796;2023-02-15T00:00:40;23.10;14.40
48515;DHT22;34309;47.260;2.796;2023-02-15T00:03:15;23.20;14.20
48515;DHT22;34309;47.260;2.796;2023-02-15T00:05:49;23.20;14.30
48515;DHT22;34309;47.260;2.796;2023-02-15T00:08:24;23.20;14.10
48515;DHT22;34309;47.260;2.796;2023-02-15T00:11:05;23.20;14.10
48515;DHT22;34309;47.260;2.796;2023-02-15T00:13:39;23.20;14.10
48515;DHT22;34309;47.260;2.796;2023-02-15T00:16:14;23.20;14.50
48515;DHT22;34309;47.260;2.796;2023-02-15T00:18:48;23.20;13.90
48515;DHT22;34309;47.260;2.796;2023-02-15T00:21:25;23.20;14.00
48515;DHT22;34309;47.260;2.796;2023-02-15T00:23:58;23.20;14.10
48515;DHT22;34309;47.260;2.796;2023-02-15T00:26:33;23.20;13.90
48515;DHT22;34309;47.260;2.796;2023-02-15T00:29:07;23.20;13.80
48515;DHT22;34309;47.260;2.796;2023-02-15T00:31:42;23.20;13.80
48515;DHT22;34309;47.260;2.796;2023-02-15T00:34:17;23.10;13.70
48515;DHT22;34309;47.260;2.796;2023-02-15T00:36:52;23.10;13.80
48515;DHT22;34309;47.260;2.796;2023-02-15T00:39:27;23.00;13.70
48515;DHT22;34309;47.260;2.796;2023-02-15T00:42:01;23.00;13.80
48515;DHT22;34309;47.260;2.796;2023-02-15T00:44:34;23.00;13.80
48515;DHT22;34309;47.260;2.796;2023-02-15T00:47:08;22.90;13.90
48515;DHT22;34309;47.260;2.796;2023-02-15T00:49:42;22.90;13.80
48515;DHT22;34309;47.260;2.796;2023-02-15T00:52:15;22.90;13.90
48515;DHT22;34309;47.260;2.796;2023-02-15T00:54:51;22.80;13.90
48515;DHT22;34309;47.260;2.796;2023-02-15T00:57:24;22.80;13.90
48515;DHT22;34309;47.260;2.796;2023-02-15T00:59:58;22.70;13.90
48515;DHT22;34309;47.260;2.796;2023-02-15T01:02:32;22.70;14.00
48515;DHT22;34309;47.260;2.796;2023-02-15T01:05:06;22.60;13.90
48515;DHT22;34309;47.260;2.796;2023-02-15T01:07:40;22.60;13.90
48515;DHT22;34309;47.260;2.796;2023-02-15T01:10:15;22.50;14.10
48515;DHT22;34309;47.260;2.796;2023-02-15T01:12:52;22.50;14.20
48515;DHT22;34309;47.260;2.796;2023-02-15T01:15:26;22.50;14.20
48515;DHT22;34309;47.260;2.796;2023-02-15T01:17:59;22.50;14.30
48515;DHT22;34309;47.260;2.796;2023-02-15T01:20:35;22.50;14.40
48515;DHT22;34309;47.260;2.796;2023-02-15T01:23:10;22.60;14.50
48515;DHT22;34309;47.260;2.796;2023-02-15T01:25:45;22.60;14.30
48515;DHT22;34309;47.260;2.796;2023-02-15T01:28:19;22.70;14.40
48515;DHT22;34309;47.260;2.796;2023-02-15T01:30:53;22.70;14.30
48515;DHT22;34309;47.260;2.796;2023-02-15T01:33:27;22.70;14.10
48515;DHT22;34309;47.260;2.796;2023-02-15T01:36:00;22.80;14.10
48515;DHT22;34309;47.260;2.796;2023-02-15T01:38:35;22.80;14.20
48515;DHT22;34309;47.260;2.796;2023-02-15T01:41:10;22.80;14.20
48515;DHT22;34309;47.260;2.796;2023-02-15T01:43:56;22.80;14.10
48515;DHT22;34309;47.260;2.796;2023-02-15T01:46:35;22.90;14.20
48515;DHT22;34309;47.260;2.796;2023-02-15T01:49:14;22.90;14.00
48515;DHT22;34309;47.260;2.796;2023-02-15T01:51:49;22.90;14.00
48515;DHT22;34309;47.260;2.796;2023-02-15T01:54:29;23.00;13.90
48515;DHT22;34309;47.260;2.796;2023-02-15T01:57:06;23.00;13.90
48515;DHT22;34309;47.260;2.796;2023-02-15T01:59:42;23.00;13.90
48515;DHT22;34309;47.260;2.796;2023-02-15T02:02:18;23.10;13.90
48515;DHT22;34309;47.260;2.796;2023-02-15T02:04:59;23.00;13.80
48515;DHT22;34309;47.260;2.796;2023-02-15T02:07:39;23.00;13.60
48515;DHT22;34309;47.260;2.796;2023-02-15T02:10:16;23.00;13.70
48515;DHT22;34309;47.260;2.796;2023-02-15T02:12:54;23.00;13.60
48515;DHT22;34309;47.260;2.796;2023-02-15T02:15:37;23.00;13.60
48515;DHT22;34309;47.260;2.796;2023-02-15T02:18:20;23.00;13.70
48515;DHT22;34309;47.260;2.796;2023-02-15T02:24:34;22.90;13.70
48515;DHT22;34309;47.260;2.796;2023-02-15T02:27:25;22.90;13.70
48515;DHT22;34309;47.260;2.796;2023-02-15T02:37:15;22.70;13.80
48515;DHT22;34309;47.260;2.796;2023-02-15T02:39:56;22.70;13.80
48515;DHT22;34309;47.260;2.796;2023-02-15T02:42:37;22.60;13.80
48515;DHT22;34309;47.260;2.796;2023-02-15T02:45:15;22.60;13.80
48515;DHT22;34309;47.260;2.796;2023-02-15T02:47:54;22.50;13.70
48515;DHT22;34309;47.260;2.796;2023-02-15T02:50:30;22.50;13.90
48515;DHT22;34309;47.260;2.796;2023-02-15T02:53:04;22.40;13.90
48515;DHT22;34309;47.260;2.796;2023-02-15T02:55:42;22.40;13.90
48515;DHT22;34309;47.260;2.796;2023-02-15T02:58:20;22.40;13.90
48515;DHT22;34309;47.260;2.796;2023-02-15T03:00:57;22.40;14.10
48515;DHT22;34309;47.260;2.796;2023-02-15T03:03:37;22.40;14.10
48515;DHT22;34309;47.260;2.796;2023-02-15T03:06:17;22.40;14.20
48515;DHT22;34309;47.260;2.796;2023-02-15T03:08:54;22.40;14.20
48515;DHT22;34309;47.260;2.796;2023-02-15T03:11:29;22.50;14.10
48515;DHT22;34309;47.260;2.796;2023-02-15T03:14:03;22.50;14.10
48515;DHT22;34309;47.260;2.796;2023-02-15T03:16:38;22.60;14.00
48515;DHT22;34309;47.260;2.796;2023-02-15T03:19:17;22.60;13.90
48515;DHT22;34309;47.260;2.796;2023-02-15T03:21:56;22.60;14.00
48515;DHT22;34309;47.260;2.796;2023-02-15T03:24:37;22.70;14.00
48515;DHT22;34309;47.260;2.796;2023-02-15T03:27:15;22.70;14.00
48515;DHT22;34309;47.260;2.796;2023-02-15T03:29:53;22.70;13.90
48515;DHT22;34309;47.260;2.796;2023-02-15T03:32:28;22.80;13.90
48515;DHT22;34309;47.260;2.796;2023-02-15T03:35:02;22.80;13.90
48515;DHT22;34309;47.260;2.796;2023-02-15T03:37:41;22.80;13.80
48515;DHT22;34309;47.260;2.796;2023-02-15T03:40:21;22.80;13.70
48515;DHT22;34309;47.260;2.796;2023-02-15T03:43:16;22.90;13.70
48515;DHT22;34309;47.260;2.796;2023-02-15T03:45:55;22.90;13.70
48515;DHT22;34309;47.260;2.796;2023-02-15T03:48:32;22.90;13.60
48515;DHT22;34309;47.260;2.796;2023-02-15T03:51:12;22.90;13.60
48515;DHT22;34309;47.260;2.796;2023-02-15T03:54:08;22.90;13.60
48515;DHT22;34309;47.260;2.796;2023-02-15T03:56:42;22.80;13.50
48515;DHT22;34309;47.260;2.796;2023-02-15T03:59:37;22.80;13.60
48515;DHT22;34309;47.260;2.796;2023-02-15T04:02:33;22.80;13.50
48515;DHT22;34309;47.260;2.796;2023-02-15T04:05:10;22.70;13.40
48515;DHT22;34309;47.260;2.796;2023-02-15T04:07:43;22.70;13.50
48515;DHT22;34309;47.260;2.796;2023-02-15T04:10:18;22.70;13.40
48515;DHT22;34309;47.260;2.796;2023-02-15T04:13:09;22.60;13.70
48515;DHT22;34309;47.260;2.796;2023-02-15T04:15:43;22.60;13.50
48515;DHT22;34309;47.260;2.796;2023-02-15T04:18:35;22.50;13.50
48515;DHT22;34309;47.260;2.796;2023-02-15T04:21:28;22.50;13.60
48515;DHT22;34309;47.260;2.796;2023-02-15T04:24:19;22.50;13.60
48515;DHT22;34309;47.260;2.796;2023-02-15T04:27:12;22.40;13.50
48515;DHT22;34309;47.260;2.796;2023-02-15T04:29:40;22.30;13.50
48515;DHT22;34309;47.260;2.796;2023-02-15T04:32:14;22.30;13.60
48515;DHT22;34309;47.260;2.796;2023-02-15T04:34:48;22.20;13.70
48515;DHT22;34309;47.260;2.796;2023-02-15T04:37:21;22.20;14.00
48515;DHT22;34309;47.260;2.796;2023-02-15T04:39:50;22.20;13.90
48515;DHT22;34309;47.260;2.796;2023-02-15T04:42:26;22.30;14.00
48515;DHT22;34309;47.260;2.796;2023-02-15T04:45:00;22.30;14.10
48515;DHT22;34309;47.260;2.796;2023-02-15T04:47:34;22.30;13.90
48515;DHT22;34309;47.260;2.796;2023-02-15T04:50:08;22.40;14.00
48515;DHT22;34309;47.260;2.796;2023-02-15T04:52:42;22.40;13.80
48515;DHT22;34309;47.260;2.796;2023-02-15T04:55:16;22.40;13.70
48515;DHT22;34309;47.260;2.796;2023-02-15T04:57:51;22.40;13.70
48515;DHT22;34309;47.260;2.796;2023-02-15T05:00:25;22.50;13.70
48515;DHT22;34309;47.260;2.796;2023-02-15T05:02:59;22.50;13.80
48515;DHT22;34309;47.260;2.796;2023-02-15T05:05:33;22.60;13.70
48515;DHT22;34309;47.260;2.796;2023-02-15T05:08:06;22.60;13.60
48515;DHT22;34309;47.260;2.796;2023-02-15T05:10:40;22.60;13.50
48515;DHT22;34309;47.260;2.796;2023-02-15T05:13:15;22.60;13.40
48515;DHT22;34309;47.260;2.796;2023-02-15T05:15:49;22.60;13.50
48515;DHT22;34309;47.260;2.796;2023-02-15T05:18:23;22.60;13.50
48515;DHT22;34309;47.260;2.796;2023-02-15T05:20:57;22.70;13.50
48515;DHT22;34309;47.260;2.796;2023-02-15T05:23:30;22.70;13.40
48515;DHT22;34309;47.260;2.796;2023-02-15T05:26:05;22.70;13.60
48515;DHT22;34309;47.260;2.796;2023-02-15T05:28:58;22.70;13.40
48515;DHT22;34309;47.260;2.796;2023-02-15T05:31:33;22.60;13.30
48515;DHT22;34309;47.260;2.796;2023-02-15T05:34:06;22.60;13.40
48515;DHT22;34309;47.260;2.796;2023-02-15T05:36:40;22.60;13.50
48515;DHT22;34309;47.260;2.796;2023-02-15T05:39:13;22.60;13.40
48515;DHT22;34309;47.260;2.796;2023-02-15T05:41:47;22.50;13.20
48515;DHT22;34309;47.260;2.796;2023-02-15T05:44:22;22.50;13.30
48515;DHT22;34309;47.260;2.796;2023-02-15T05:46:56;22.50;13.30
48515;DHT22;34309;47.260;2.796;2023-02-15T05:49:29;22.40;13.40
48515;DHT22;34309;47.260;2.796;2023-02-15T05:52:03;22.40;13.40
48515;DHT22;34309;47.260;2.796;2023-02-15T05:54:37;22.30;13.40
48515;DHT22;34309;47.260;2.796;2023-02-15T05:57:10;22.30;13.50
48515;DHT22;34309;47.260;2.796;2023-02-15T05:59:45;22.20;13.40
48515;DHT22;34309;47.260;2.796;2023-02-15T06:02:19;22.20;13.40
48515;DHT22;34309;47.260;2.796;2023-02-15T06:04:53;22.10;13.50
48515;DHT22;34309;47.260;2.796;2023-02-15T06:07:21;22.10;13.50
48515;DHT22;34309;47.260;2.796;2023-02-15T06:09:55;22.00;13.60
48515;DHT22;34309;47.260;2.796;2023-02-15T06:12:29;22.00;13.70
48515;DHT22;34309;47.260;2.796;2023-02-15T06:15:04;22.00;13.70
48515;DHT22;34309;47.260;2.796;2023-02-15T06:17:33;22.00;13.70
48515;DHT22;34309;47.260;2.796;2023-02-15T06:20:07;22.10;13.80
48515;DHT22;34309;47.260;2.796;2023-02-15T06:22:41;22.10;13.70
48515;DHT22;34309;47.260;2.796;2023-02-15T06:25:15;22.10;13.50
48515;DHT22;34309;47.260;2.796;2023-02-15T06:27:49;22.20;13.70
48515;DHT22;34309;47.260;2.796;2023-02-15T06:30:24;22.20;13.70
48515;DHT22;34309;47.260;2.796;2023-02-15T06:32:58;22.20;13.60
48515;DHT22;34309;47.260;2.796;2023-02-15T06:35:31;22.30;13.60
48515;DHT22;34309;47.260;2.796;2023-02-15T06:38:05;22.30;13.50
48515;DHT22;34309;47.260;2.796;2023-02-15T06:40:39;22.40;13.50
48515;DHT22;34309;47.260;2.796;2023-02-15T06:43:12;22.40;13.40
48515;DHT22;34309;47.260;2.796;2023-02-15T06:45:47;22.40;13.50
48515;DHT22;34309;47.260;2.796;2023-02-15T06:48:21;22.50;13.50
48515;DHT22;34309;47.260;2.796;2023-02-15T06:50:55;22.50;13.30
48515;DHT22;34309;47.260;2.796;2023-02-15T06:53:29;22.50;13.20
48515;DHT22;34309;47.260;2.796;2023-02-15T06:56:03;22.50;13.20
48515;DHT22;34309;47.260;2.796;2023-02-15T06:58:39;22.50;13.20
48515;DHT22;34309;47.260;2.796;2023-02-15T07:01:15;22.60;13.10
48515;DHT22;34309;47.260;2.796;2023-02-15T07:03:49;22.60;13.20
48515;DHT22;34309;47.260;2.796;2023-02-15T07:06:23;22.60;13.10
48515;DHT22;34309;47.260;2.796;2023-02-15T07:08:57;22.60;13.10
48515;DHT22;34309;47.260;2.796;2023-02-15T07:11:30;22.60;13.10
48515;DHT22;34309;47.260;2.796;2023-02-15T07:14:22;22.60;13.00
48515;DHT22;34309;47.260;2.796;2023-02-15T07:16:57;22.50;13.10
48515;DHT22;34309;47.260;2.796;2023-02-15T07:19:30;22.50;13.10
48515;DHT22;34309;47.260;2.796;2023-02-15T07:22:04;22.50;13.20
48515;DHT22;34309;47.260;2.796;2023-02-15T07:24:38;22.60;13.20
48515;DHT22;34309;47.260;2.796;2023-02-15T07:27:11;22.50;13.10
48515;DHT22;34309;47.260;2.796;2023-02-15T07:29:45;22.60;13.10
48515;DHT22;34309;47.260;2.796;2023-02-15T07:32:20;22.60;13.10
48515;DHT22;34309;47.260;2.796;2023-02-15T07:34:54;22.60;13.10
48515;DHT22;34309;47.260;2.796;2023-02-15T07:37:28;22.70;13.20
48515;DHT22;34309;47.260;2.796;2023-02-15T07:40:01;22.70;13.20
48515;DHT22;34309;47.260;2.796;2023-02-15T07:42:35;22.70;13.20
48515;DHT22;34309;47.260;2.796;2023-02-15T07:45:09;22.70;13.20
48515;DHT22;34309;47.260;2.796;2023-02-15T07:47:45;22.70;13.20
48515;DHT22;34309;47.260;2.796;2023-02-15T07:50:19;22.70;13.20
48515;DHT22;34309;47.260;2.796;2023-02-15T07:52:53;22.70;13.10
48515;DHT22;34309;47.260;2.796;2023-02-15T07:55:26;22.70;13.20
48515;DHT22;34309;47.260;2.796;2023-02-15T07:58:00;22.70;13.20
48515;DHT22;34309;47.260;2.796;2023-02-15T08:00:34;22.70;13.20
48515;DHT22;34309;47.260;2.796;2023-02-15T08:03:29;22.70;13.30
48515;DHT22;34309;47.260;2.796;2023-02-15T08:06:03;22.70;13.20
48515;DHT22;34309;47.260;2.796;2023-02-15T08:08:37;22.70;13.20
48515;DHT22;34309;47.260;2.796;2023-02-15T08:11:17;22.70;13.20
48515;DHT22;34309;47.260;2.796;2023-02-15T08:14:06;22.70;13.20
48515;DHT22;34309;47.260;2.796;2023-02-15T08:16:42;22.70;13.20
48515;DHT22;34309;47.260;2.796;2023-02-15T08:19:19;22.70;13.30
48515;DHT22;34309;47.260;2.796;2023-02-15T08:21:54;22.70;13.20
48515;DHT22;34309;47.260;2.796;2023-02-15T08:24:31;22.80;13.30
48515;DHT22;34309;47.260;2.796;2023-02-15T08:27:05;22.80;13.30
48515;DHT22;34309;47.260;2.796;2023-02-15T08:29:39;22.80;13.40
48515;DHT22;34309;47.260;2.796;2023-02-15T08:32:14;22.80;13.30
48515;DHT22;34309;47.260;2.796;2023-02-15T08:34:49;22.80;13.30
48515;DHT22;34309;47.260;2.796;2023-02-15T08:37:22;22.80;13.30
48515;DHT22;34309;47.260;2.796;2023-02-15T08:39:57;22.80;13.30
48515;DHT22;34309;47.260;2.796;2023-02-15T08:42:32;22.80;13.40
48515;DHT22;34309;47.260;2.796;2023-02-15T08:45:07;22.80;13.40
48515;DHT22;34309;47.260;2.796;2023-02-15T08:47:40;22.80;13.30
48515;DHT22;34309;47.260;2.796;2023-02-15T08:50:15;22.80;13.30
48515;DHT22;34309;47.260;2.796;2023-02-15T08:52:49;22.80;13.40
48515;DHT22;34309;47.260;2.796;2023-02-15T08:55:23;22.80;13.40
48515;DHT22;34309;47.260;2.796;2023-02-15T08:57:57;22.70;13.30
48515;DHT22;34309;47.260;2.796;2023-02-15T09:00:30;22.70;13.30
48515;DHT22;34309;47.260;2.796;2023-02-15T09:03:04;22.70;13.30
48515;DHT22;34309;47.260;2.796;2023-02-15T09:05:39;22.70;13.30
48515;DHT22;34309;47.260;2.796;2023-02-15T09:08:13;22.60;13.40
48515;DHT22;34309;47.260;2.796;2023-02-15T09:10:47;22.60;13.40
48515;DHT22;34309;47.260;2.796;2023-02-15T09:13:21;22.60;13.40
48515;DHT22;34309;47.260;2.796;2023-02-15T09:15:59;22.60;13.50
48515;DHT22;34309;47.260;2.796;2023-02-15T09:18:34;22.50;13.50
48515;DHT22;34309;47.260;2.796;2023-02-15T09:21:12;22.50;13.60
48515;DHT22;34309;47.260;2.796;2023-02-15T09:23:50;22.40;13.60
48515;DHT22;34309;47.260;2.796;2023-02-15T09:26:25;22.40;13.70
48515;DHT22;34309;47.260;2.796;2023-02-15T09:29:00;22.30;13.70
48515;DHT22;34309;47.260;2.796;2023-02-15T09:31:38;22.30;13.70
48515;DHT22;34309;47.260;2.796;2023-02-15T09:34:14;22.20;13.70
48515;DHT22;34309;47.260;2.796;2023-02-15T09:36:50;22.20;13.70
48515;DHT22;34309;47.260;2.796;2023-02-15T09:39:25;22.20;13.90
48515;DHT22;34309;47.260;2.796;2023-02-15T09:42:12;22.10;13.90
48515;DHT22;34309;47.260;2.796;2023-02-15T09:45:07;22.10;14.00
48515;DHT22;34309;47.260;2.796;2023-02-15T09:48:07;22.00;13.90
48515;DHT22;34309;47.260;2.796;2023-02-15T09:50:53;22.00;14.10
48515;DHT22;34309;47.260;2.796;2023-02-15T09:53:40;22.00;14.20
48515;DHT22;34309;47.260;2.796;2023-02-15T09:56:22;21.90;14.20
48515;DHT22;34309;47.260;2.796;2023-02-15T09:59:08;21.90;14.30
48515;DHT22;34309;47.260;2.796;2023-02-15T10:01:52;21.80;14.30
48515;DHT22;34309;47.260;2.796;2023-02-15T10:04:46;21.80;14.70
48515;DHT22;34309;47.260;2.796;2023-02-15T10:07:36;21.70;14.60
48515;DHT22;34309;47.260;2.796;2023-02-15T10:10:21;21.70;14.70
48515;DHT22;34309;47.260;2.796;2023-02-15T10:13:09;21.70;14.90
48515;DHT22;34309;47.260;2.796;2023-02-15T10:15:57;21.70;14.90
48515;DHT22;34309;47.260;2.796;2023-02-15T10:18:48;21.60;14.80
48515;DHT22;34309;47.260;2.796;2023-02-15T10:21:33;21.60;14.80
48515;DHT22;34309;47.260;2.796;2023-02-15T10:24:35;21.50;14.70
48515;DHT22;34309;47.260;2.796;2023-02-15T10:27:18;21.50;14.70
48515;DHT22;34309;47.260;2.796;2023-02-15T10:30:01;21.50;14.70
48515;DHT22;34309;47.260;2.796;2023-02-15T10:32:39;21.50;14.80
48515;DHT22;34309;47.260;2.796;2023-02-15T10:35:20;21.50;15.30
48515;DHT22;34309;47.260;2.796;2023-02-15T10:38:19;21.50;15.50
48515;DHT22;34309;47.260;2.796;2023-02-15T10:41:05;21.50;15.40
48515;DHT22;34309;47.260;2.796;2023-02-15T10:44:04;21.40;15.60
48515;DHT22;34309;47.260;2.796;2023-02-15T10:46:53;21.40;15.80
48515;DHT22;34309;47.260;2.796;2023-02-15T10:53:04;21.40;16.00
48515;DHT22;34309;47.260;2.796;2023-02-15T10:55:50;21.40;16.10
48515;DHT22;34309;47.260;2.796;2023-02-15T10:58:36;21.40;16.50
48515;DHT22;34309;47.260;2.796;2023-02-15T11:01:19;21.40;16.50
48515;DHT22;34309;47.260;2.796;2023-02-15T11:04:09;21.40;16.60
48515;DHT22;34309;47.260;2.796;2023-02-15T11:06:51;21.40;16.60
48515;DHT22;34309;47.260;2.796;2023-02-15T11:09:38;21.40;16.70
48515;DHT22;34309;47.260;2.796;2023-02-15T11:12:17;21.40;16.70
48515;DHT22;34309;47.260;2.796;2023-02-15T11:14:57;21.40;16.90
48515;DHT22;34309;47.260;2.796;2023-02-15T11:17:38;21.30;16.80
48515;DHT22;34309;47.260;2.796;2023-02-15T11:20:18;21.40;16.90
48515;DHT22;34309;47.260;2.796;2023-02-15T11:22:55;21.40;17.00
48515;DHT22;34309;47.260;2.796;2023-02-15T11:25:32;21.40;17.10
48515;DHT22;34309;47.260;2.796;2023-02-15T11:28:13;21.30;17.10
48515;DHT22;34309;47.260;2.796;2023-02-15T11:30:53;21.40;17.20
48515;DHT22;34309;47.260;2.796;2023-02-15T11:33:31;21.40;17.30
48515;DHT22;34309;47.260;2.796;2023-02-15T11:36:13;21.40;17.40
48515;DHT22;34309;47.260;2.796;2023-02-15T11:38:52;21.40;17.40
48515;DHT22;34309;47.260;2.796;2023-02-15T11:41:28;21.40;17.40
48515;DHT22;34309;47.260;2.796;2023-02-15T11:44:06;21.40;17.20
48515;DHT22;34309;47.260;2.796;2023-02-15T11:46:41;21.40;17.30
48515;DHT22;34309;47.260;2.796;2023-02-15T11:49:22;21.40;17.40
48515;DHT22;34309;47.260;2.796;2023-02-15T11:51:57;21.40;17.40
48515;DHT22;34309;47.260;2.796;2023-02-15T11:54:33;21.40;17.40
48515;DHT22;34309;47.260;2.796;2023-02-15T11:57:14;21.40;17.40
48515;DHT22;34309;47.260;2.796;2023-02-15T11:59:52;21.40;17.40
48515;DHT22;34309;47.260;2.796;2023-02-15T12:02:26;21.40;17.90
48515;DHT22;34309;47.260;2.796;2023-02-15T12:05:07;21.40;17.20
48515;DHT22;34309;47.260;2.796;2023-02-15T12:07:46;21.30;17.00
48515;DHT22;34309;47.260;2.796;2023-02-15T12:10:23;21.30;16.90
48515;DHT22;34309;47.260;2.796;2023-02-15T12:13:10;21.30;16.80
48515;DHT22;34309;47.260;2.796;2023-02-15T12:15:49;21.30;16.60
48515;DHT22;34309;47.260;2.796;2023-02-15T12:18:36;21.30;16.40
48515;DHT22;34309;47.260;2.796;2023-02-15T12:21:15;21.30;16.40
48515;DHT22;34309;47.260;2.796;2023-02-15T12:23:51;21.30;16.50
48515;DHT22;34309;47.260;2.796;2023-02-15T12:26:27;21.30;16.40
48515;DHT22;34309;47.260;2.796;2023-02-15T12:29:06;21.30;16.40
48515;DHT22;34309;47.260;2.796;2023-02-15T12:31:43;21.20;16.10
48515;DHT22;34309;47.260;2.796;2023-02-15T12:34:22;21.30;16.30
48515;DHT22;34309;47.260;2.796;2023-02-15T12:37:00;21.20;16.10
48515;DHT22;34309;47.260;2.796;2023-02-15T12:39:35;21.20;16.10
48515;DHT22;34309;47.260;2.796;2023-02-15T12:42:15;21.20;16.20
48515;DHT22;34309;47.260;2.796;2023-02-15T12:44:57;21.20;16.10
48515;DHT22;34309;47.260;2.796;2023-02-15T12:47:31;21.20;16.00
48515;DHT22;34309;47.260;2.796;2023-02-15T12:50:23;21.20;16.00
48515;DHT22;34309;47.260;2.796;2023-02-15T12:53:10;21.20;15.90
48515;DHT22;34309;47.260;2.796;2023-02-15T12:55:54;21.20;15.90
48515;DHT22;34309;47.260;2.796;2023-02-15T12:58:29;21.20;15.80
48515;DHT22;34309;47.260;2.796;2023-02-15T13:01:12;21.10;15.60
48515;DHT22;34309;47.260;2.796;2023-02-15T13:03:55;21.10;15.60
48515;DHT22;34309;47.260;2.796;2023-02-15T13:06:32;21.10;15.70
48515;DHT22;34309;47.260;2.796;2023-02-15T13:09:14;21.10;15.60
48515;DHT22;34309;47.260;2.796;2023-02-15T13:11:50;21.10;15.60
48515;DHT22;34309;47.260;2.796;2023-02-15T13:14:30;21.00;15.40
48515;DHT22;34309;47.260;2.796;2023-02-15T13:17:04;21.00;15.40
48515;DHT22;34309;47.260;2.796;2023-02-15T13:19:42;21.00;15.50
48515;DHT22;34309;47.260;2.796;2023-02-15T13:22:18;21.00;15.60
48515;DHT22;34309;47.260;2.796;2023-02-15T13:24:57;21.00;15.30
48515;DHT22;34309;47.260;2.796;2023-02-15T13:27:35;21.00;15.30
48515;DHT22;34309;47.260;2.796;2023-02-15T13:30:23;21.00;15.50
48515;DHT22;34309;47.260;2.796;2023-02-15T13:33:02;21.00;15.50
48515;DHT22;34309;47.260;2.796;2023-02-15T13:35:41;21.00;15.40
48515;DHT22;34309;47.260;2.796;2023-02-15T13:38:28;21.00;15.40
48515;DHT22;34309;47.260;2.796;2023-02-15T13:41:12;21.00;15.30
48515;DHT22;34309;47.260;2.796;2023-02-15T13:43:54;20.90;15.20
48515;DHT22;34309;47.260;2.796;2023-02-15T13:46:53;20.90;15.30
48515;DHT22;34309;47.260;2.796;2023-02-15T13:49:40;20.90;15.30
48515;DHT22;34309;47.260;2.796;2023-02-15T13:52:20;20.90;15.40
48515;DHT22;34309;47.260;2.796;2023-02-15T13:55:13;20.90;15.70
48515;DHT22;34309;47.260;2.796;2023-02-15T13:58:21;20.90;15.80
48515;DHT22;34309;47.260;2.796;2023-02-15T14:01:08;20.90;16.00
48515;DHT22;34309;47.260;2.796;2023-02-15T14:04:11;20.90;16.20
48515;DHT22;34309;47.260;2.796;2023-02-15T14:07:02;20.90;16.30
48515;DHT22;34309;47.260;2.796;2023-02-15T14:09:45;20.90;16.40
48515;DHT22;34309;47.260;2.796;2023-02-15T14:12:34;20.90;16.50
48515;DHT22;34309;47.260;2.796;2023-02-15T14:15:21;20.90;16.50
48515;DHT22;34309;47.260;2.796;2023-02-15T14:18:12;21.00;16.70
48515;DHT22;34309;47.260;2.796;2023-02-15T14:20:53;20.90;16.70
48515;DHT22;34309;47.260;2.796;2023-02-15T14:23:42;20.90;16.80
48515;DHT22;34309;47.260;2.796;2023-02-15T14:26:24;21.00;16.80
48515;DHT22;34309;47.260;2.796;2023-02-15T14:29:13;21.00;17.00
48515;DHT22;34309;47.260;2.796;2023-02-15T14:31:54;21.00;17.10
48515;DHT22;34309;47.260;2.796;2023-02-15T14:34:36;21.00;16.90
48515;DHT22;34309;47.260;2.796;2023-02-15T14:37:18;21.00;17.20
48515;DHT22;34309;47.260;2.796;2023-02-15T14:39:56;21.00;17.00
48515;DHT22;34309;47.260;2.796;2023-02-15T14:42:53;21.00;16.90
48515;DHT22;34309;47.260;2.796;2023-02-15T14:45:33;21.00;17.10
48515;DHT22;34309;47.260;2.796;2023-02-15T14:48:21;21.00;17.10
48515;DHT22;34309;47.260;2.796;2023-02-15T14:50:58;21.00;17.20
48515;DHT22;34309;47.260;2.796;2023-02-15T14:53:36;21.00;17.20
48515;DHT22;34309;47.260;2.796;2023-02-15T14:56:23;21.00;17.20
48515;DHT22;34309;47.260;2.796;2023-02-15T14:59:11;21.00;17.10
48515;DHT22;34309;47.260;2.796;2023-02-15T15:01:57;21.10;17.30
48515;DHT22;34309;47.260;2.796;2023-02-15T15:04:35;21.10;17.10
48515;DHT22;34309;47.260;2.796;2023-02-15T15:07:17;21.10;17.00
48515;DHT22;34309;47.260;2.796;2023-02-15T15:09:59;21.10;17.00
48515;DHT22;34309;47.260;2.796;2023-02-15T15:12:40;21.10;17.00
48515;DHT22;34309;47.260;2.796;2023-02-15T15:15:32;21.10;16.90
48515;DHT22;34309;47.260;2.796;2023-02-15T15:18:06;21.10;17.10
48515;DHT22;34309;47.260;2.796;2023-02-15T15:20:45;21.10;17.20
48515;DHT22;34309;47.260;2.796;2023-02-15T15:23:42;21.10;17.30
48515;DHT22;34309;47.260;2.796;2023-02-15T15:26:28;21.10;17.30
48515;DHT22;34309;47.260;2.796;2023-02-15T15:29:03;21.10;17.40
48515;DHT22;34309;47.260;2.796;2023-02-15T15:31:47;21.10;17.40
48515;DHT22;34309;47.260;2.796;2023-02-15T15:37:51;21.10;17.60
48515;DHT22;34309;47.260;2.796;2023-02-15T15:43:49;21.10;17.50
48515;DHT22;34309;47.260;2.796;2023-02-15T15:46:41;21.10;17.50
48515;DHT22;34309;47.260;2.796;2023-02-15T15:49:21;21.10;17.60
48515;DHT22;34309;47.260;2.796;2023-02-15T15:52:00;21.10;17.50
48515;DHT22;34309;47.260;2.796;2023-02-15T15:54:38;21.10;17.60
48515;DHT22;34309;47.260;2.796;2023-02-15T15:57:17;21.20;17.80
48515;DHT22;34309;47.260;2.796;2023-02-15T15:59:53;21.20;17.80
48515;DHT22;34309;47.260;2.796;2023-02-15T16:02:28;21.20;17.60
48515;DHT22;34309;47.260;2.796;2023-02-15T16:05:08;21.20;17.90
48515;DHT22;34309;47.260;2.796;2023-02-15T16:07:42;21.20;17.80
48515;DHT22;34309;47.260;2.796;2023-02-15T16:10:26;21.20;17.90
48515;DHT22;34309;47.260;2.796;2023-02-15T16:13:00;21.20;17.90
48515;DHT22;34309;47.260;2.796;2023-02-15T16:15:36;21.20;17.90
48515;DHT22;34309;47.260;2.796;2023-02-15T16:18:17;21.20;17.90
48515;DHT22;34309;47.260;2.796;2023-02-15T16:20:54;21.20;17.90
48515;DHT22;34309;47.260;2.796;2023-02-15T16:23:56;21.20;17.90
48515;DHT22;34309;47.260;2.796;2023-02-15T16:27:00;21.30;17.90
48515;DHT22;34309;47.260;2.796;2023-02-15T16:29:37;21.30;17.90
48515;DHT22;34309;47.260;2.796;2023-02-15T16:32:17;21.30;17.90
48515;DHT22;34309;47.260;2.796;2023-02-15T16:34:53;21.20;17.90
48515;DHT22;34309;47.260;2.796;2023-02-15T16:37:28;21.30;18.00
48515;DHT22;34309;47.260;2.796;2023-02-15T16:40:05;21.30;17.90
48515;DHT22;34309;47.260;2.796;2023-02-15T16:42:41;21.40;18.00
48515;DHT22;34309;47.260;2.796;2023-02-15T16:45:18;21.50;18.00
48515;DHT22;34309;47.260;2.796;2023-02-15T16:47:55;21.60;18.10
48515;DHT22;34309;47.260;2.796;2023-02-15T16:50:31;21.80;18.10
48515;DHT22;34309;47.260;2.796;2023-02-15T16:53:08;22.00;18.10
48515;DHT22;34309;47.260;2.796;2023-02-15T16:55:50;22.10;18.10
48515;DHT22;34309;47.260;2.796;2023-02-15T16:58:32;22.30;17.90
48515;DHT22;34309;47.260;2.796;2023-02-15T17:01:13;22.40;17.90
48515;DHT22;34309;47.260;2.796;2023-02-15T17:03:50;22.60;17.90